sensor_id;sensor_type;location;lat;lon;timestamp;temperature;humidity
35682;DHT22;21805;51.022;4.782;2023-06-10T00:02:28;24.40;95.60
35682;DHT22;21805;51.022;4.782;2023-06-10T00:04:53;24.40;95.60
35682;DHT22;21805;51.022;4.782;2023-06-10T00:07:19;24.40;95.90
35682;DHT22;21805;51.022;4.782;2023-06-10T00:09:45;24.40;95.90
35682;DHT22;21805;51.022;4.782;2023-06-10T00:12:10;24.40;96.00
35682;DHT22;21805;51.022;4.782;2023-06-10T00:14:39;24.30;96.10
35682;DHT22;21805;51.022;4.782;2023-06-10T00:17:08;24.30;96.10
35682;DHT22;21805;51.022;4.782;2023-06-10T00:19:37;24.20;96.30
35682;DHT22;21805;51.022;4.782;2023-06-10T00:22:07;24.10;96.50
35682;DHT22;21805;51.022;4.782;2023-06-10T00:24:32;24.10;96.70
35682;DHT22;21805;51.022;4.782;2023-06-10T00:26:58;24.00;96.80
35682;DHT22;21805;51.022;4.782;2023-06-10T00:29:23;24.10;96.90
35682;DHT22;21805;51.022;4.782;2023-06-10T00:31:49;24.10;97.00
35682;DHT22;21805;51.022;4.782;2023-06-10T00:34:14;24.00;97.00
35682;DHT22;21805;51.022;4.782;2023-06-10T00:36:40;24.00;97.10
35682;DHT22;21805;51.022;4.782;2023-06-10T00:39:05;24.00;97.10
35682;DHT22;21805;51.022;4.782;2023-06-10T00:41:31;24.00;97.20
35682;DHT22;21805;51.022;4.782;2023-06-10T00:43:59;23.90;97.30
35682;DHT22;21805;51.022;4.782;2023-06-10T00:46:24;23.90;97.40
35682;DHT22;21805;51.022;4.782;2023-06-10T00:48:50;23.90;97.50
35682;DHT22;21805;51.022;4.782;2023-06-10T00:51:16;23.80;97.50
35682;DHT22;21805;51.022;4.782;2023-06-10T00:53:42;23.80;97.70
35682;DHT22;21805;51.022;4.782;2023-06-10T00:56:10;23.70;97.80
35682;DHT22;21805;51.022;4.782;2023-06-10T00:58:35;23.60;98.00
35682;DHT22;21805;51.022;4.782;2023-06-10T01:01:01;23.40;98.30
35682;DHT22;21805;51.022;4.782;2023-06-10T01:03:27;23.40;98.30
35682;DHT22;21805;51.022;4.782;2023-06-10T01:08:40;23.30;98.90
35682;DHT22;21805;51.022;4.782;2023-06-10T01:11:07;23.30;98.70
35682;DHT22;21805;51.022;4.782;2023-06-10T01:13:34;23.30;98.70
35682;DHT22;21805;51.022;4.782;2023-06-10T01:16:01;23.30;98.80
35682;DHT22;21805;51.022;4.782;2023-06-10T01:18:30;23.30;98.80
35682;DHT22;21805;51.022;4.782;2023-06-10T01:20:56;23.30;98.70
35682;DHT22;21805;51.022;4.782;2023-06-10T01:23:22;23.30;98.90
35682;DHT22;21805;51.022;4.782;2023-06-10T01:26:07;23.30;99.10
35682;DHT22;21805;51.022;4.782;2023-06-10T01:31:17;23.10;99.40
35682;DHT22;21805;51.022;4.782;2023-06-10T01:33:48;23.00;99.50
35682;DHT22;21805;51.022;4.782;2023-06-10T01:36:17;23.00;99.50
35682;DHT22;21805;51.022;4.782;2023-06-10T01:38:44;23.00;99.70
35682;DHT22;21805;51.022;4.782;2023-06-10T01:41:13;23.00;99.60
35682;DHT22;21805;51.022;4.782;2023-06-10T01:43:39;23.00;99.70
35682;DHT22;21805;51.022;4.782;2023-06-10T01:46:05;23.00;99.70
35682;DHT22;21805;51.022;4.782;2023-06-10T01:48:31;23.00;99.80
35682;DHT22;21805;51.022;4.782;2023-06-10T01:50:57;22.90;99.90
35682;DHT22;21805;51.022;4.782;2023-06-10T01:53:22;22.90;99.90
35682;DHT22;21805;51.022;4.782;2023-06-10T01:55:48;22.80;99.90
35682;DHT22;21805;51.022;4.782;2023-06-10T01:58:14;22.80;99.90
35682;DHT22;21805;51.022;4.782;2023-06-10T02:00:40;22.80;99.90
35682;DHT22;21805;51.022;4.782;2023-06-10T02:03:06;22.70;99.90
35682;DHT22;21805;51.022;4.782;2023-06-10T02:05:31;22.70;99.90
35682;DHT22;21805;51.022;4.782;2023-06-10T02:07:57;22.60;99.90
35682;DHT22;21805;51.022;4.782;2023-06-10T02:10:24;22.60;99.90
35682;DHT22;21805;51.022;4.782;2023-06-10T02:12:50;22.60;99.90
35682;DHT22;21805;51.022;4.782;2023-06-10T02:15:15;22.50;99.90
35682;DHT22;21805;51.022;4.782;2023-06-10T02:17:41;22.40;99.90
35682;DHT22;21805;51.022;4.782;2023-06-10T02:20:07;22.40;99.90
35682;DHT22;21805;51.022;4.782;2023-06-10T02:22:36;22.40;99.90
35682;DHT22;21805;51.022;4.782;2023-06-10T02:25:02;22.40;99.90
35682;DHT22;21805;51.022;4.782;2023-06-10T02:27:29;22.40;99.90
35682;DHT22;21805;51.022;4.782;2023-06-10T02:29:55;22.30;99.90
35682;DHT22;21805;51.022;4.782;2023-06-10T02:32:21;22.30;99.90
35682;DHT22;21805;51.022;4.782;2023-06-10T02:34:47;22.20;99.90
35682;DHT22;21805;51.022;4.782;2023-06-10T02:37:14;22.20;99.90
35682;DHT22;21805;51.022;4.782;2023-06-10T02:39:40;22.20;99.90
35682;DHT22;21805;51.022;4.782;2023-06-10T02:42:05;22.30;99.90
35682;DHT22;21805;51.022;4.782;2023-06-10T02:44:31;22.20;99.90
35682;DHT22;21805;51.022;4.782;2023-06-10T02:46:57;22.20;99.90
35682;DHT22;21805;51.022;4.782;2023-06-10T02:49:22;22.10;99.90
35682;DHT22;21805;51.022;4.782;2023-06-10T02:51:50;22.10;99.90
35682;DHT22;21805;51.022;4.782;2023-06-10T02:54:19;22.10;99.90
35682;DHT22;21805;51.022;4.782;2023-06-10T02:56:45;22.00;99.90
35682;DHT22;21805;51.022;4.782;2023-06-10T02:59:11;22.00;99.90
35682;DHT22;21805;51.022;4.782;2023-06-10T03:01:36;22.00;99.90
35682;DHT22;21805;51.022;4.782;2023-06-10T03:04:03;21.90;99.90
35682;DHT22;21805;51.022;4.782;2023-06-10T03:06:29;21.80;99.90
35682;DHT22;21805;51.022;4.782;2023-06-10T03:08:56;21.80;99.90
35682;DHT22;21805;51.022;4.782;2023-06-10T03:11:21;21.70;99.90
35682;DHT22;21805;51.022;4.782;2023-06-10T03:13:48;21.70;99.90
35682;DHT22;21805;51.022;4.782;2023-06-10T03:16:13;21.60;99.90
35682;DHT22;21805;51.022;4.782;2023-06-10T03:18:39;21.60;99.90
35682;DHT22;21805;51.022;4.782;2023-06-10T03:21:05;21.50;99.90
35682;DHT22;21805;51.022;4.782;2023-06-10T03:23:30;21.50;99.90
35682;DHT22;21805;51.022;4.782;2023-06-10T03:25:56;21.50;99.90
35682;DHT22;21805;51.022;4.782;2023-06-10T03:28:21;21.40;99.90
35682;DHT22;21805;51.022;4.782;2023-06-10T03:30:47;21.30;99.90
35682;DHT22;21805;51.022;4.782;2023-06-10T03:33:13;21.30;99.90
35682;DHT22;21805;51.022;4.782;2023-06-10T03:35:39;21.30;99.90
35682;DHT22;21805;51.022;4.782;2023-06-10T03:38:05;21.30;99.90
35682;DHT22;21805;51.022;4.782;2023-06-10T03:40:31;21.20;99.90
35682;DHT22;21805;51.022;4.782;2023-06-10T03:42:57;21.20;99.90
35682;DHT22;21805;51.022;4.782;2023-06-10T03:45:23;21.10;99.90
35682;DHT22;21805;51.022;4.782;2023-06-10T03:47:50;21.00;99.90
35682;DHT22;21805;51.022;4.782;2023-06-10T03:50:16;21.00;99.90
35682;DHT22;21805;51.022;4.782;2023-06-10T03:52:41;21.00;99.90
35682;DHT22;21805;51.022;4.782;2023-06-10T03:55:08;21.00;99.90
35682;DHT22;21805;51.022;4.782;2023-06-10T03:57:34;21.00;99.90
35682;DHT22;21805;51.022;4.782;2023-06-10T03:59:59;21.00;99.90
35682;DHT22;21805;51.022;4.782;2023-06-10T04:02:25;21.10;99.90
35682;DHT22;21805;51.022;4.782;2023-06-10T04:04:50;21.10;99.90
35682;DHT22;21805;51.022;4.782;2023-06-10T04:07:16;21.10;99.90
35682;DHT22;21805;51.022;4.782;2023-06-10T04:09:44;21.10;99.90
35682;DHT22;21805;51.022;4.782;2023-06-10T04:12:09;21.10;99.90
35682;DHT22;21805;51.022;4.782;2023-06-10T04:14:36;21.20;99.90
35682;DHT22;21805;51.022;4.782;2023-06-10T04:17:03;21.20;99.90
35682;DHT22;21805;51.022;4.782;2023-06-10T04:19:32;21.30;99.90
35682;DHT22;21805;51.022;4.782;2023-06-10T04:21:57;21.30;99.90
35682;DHT22;21805;51.022;4.782;2023-06-10T04:24:24;21.20;99.90
35682;DHT22;21805;51.022;4.782;2023-06-10T04:26:50;21.20;99.90
35682;DHT22;21805;51.022;4.782;2023-06-10T04:29:15;21.20;99.90
35682;DHT22;21805;51.022;4.782;2023-06-10T04:31:41;21.30;99.90
35682;DHT22;21805;51.022;4.782;2023-06-10T04:34:07;21.30;99.90
35682;DHT22;21805;51.022;4.782;2023-06-10T04:36:33;21.20;99.90
35682;DHT22;21805;51.022;4.782;2023-06-10T04:38:58;21.30;99.90
35682;DHT22;21805;51.022;4.782;2023-06-10T04:41:25;21.30;99.90
35682;DHT22;21805;51.022;4.782;2023-06-10T04:43:52;21.30;99.90
35682;DHT22;21805;51.022;4.782;2023-06-10T04:46:18;21.40;99.90
35682;DHT22;21805;51.022;4.782;2023-06-10T04:48:44;21.60;99.90
35682;DHT22;21805;51.022;4.782;2023-06-10T04:51:12;21.60;99.90
35682;DHT22;21805;51.022;4.782;2023-06-10T04:53:38;21.70;99.90
35682;DHT22;21805;51.022;4.782;2023-06-10T04:56:05;21.80;99.90
35682;DHT22;21805;51.022;4.782;2023-06-10T04:58:33;21.90;99.90
35682;DHT22;21805;51.022;4.782;2023-06-10T05:00:58;21.90;99.90
35682;DHT22;21805;51.022;4.782;2023-06-10T05:03:25;21.90;99.90
35682;DHT22;21805;51.022;4.782;2023-06-10T05:05:50;21.90;99.90
35682;DHT22;21805;51.022;4.782;2023-06-10T05:08:17;21.90;99.90
35682;DHT22;21805;51.022;4.782;2023-06-10T05:10:43;22.00;99.90
35682;DHT22;21805;51.022;4.782;2023-06-10T05:13:09;22.10;99.90
35682;DHT22;21805;51.022;4.782;2023-06-10T05:15:34;22.20;99.90
35682;DHT22;21805;51.022;4.782;2023-06-10T05:18:00;22.40;99.90
35682;DHT22;21805;51.022;4.782;2023-06-10T05:20:27;22.50;99.90
35682;DHT22;21805;51.022;4.782;2023-06-10T05:22:54;22.60;99.90
35682;DHT22;21805;51.022;4.782;2023-06-10T05:25:19;22.70;99.90
35682;DHT22;21805;51.022;4.782;2023-06-10T05:27:45;22.80;99.90
35682;DHT22;21805;51.022;4.782;2023-06-10T05:30:10;22.80;99.90
35682;DHT22;21805;51.022;4.782;2023-06-10T05:32:36;23.00;99.90
35682;DHT22;21805;51.022;4.782;2023-06-10T05:35:02;23.10;99.90
35682;DHT22;21805;51.022;4.782;2023-06-10T05:37:29;23.10;99.90
35682;DHT22;21805;51.022;4.782;2023-06-10T05:39:54;23.20;99.90
35682;DHT22;21805;51.022;4.782;2023-06-10T05:42:20;23.20;99.90
35682;DHT22;21805;51.022;4.782;2023-06-10T05:44:45;23.20;99.90
35682;DHT22;21805;51.022;4.782;2023-06-10T05:47:11;23.40;99.90
35682;DHT22;21805;51.022;4.782;2023-06-10T05:49:37;23.40;99.90
35682;DHT22;21805;51.022;4.782;2023-06-10T05:52:02;23.60;99.90
35682;DHT22;21805;51.022;4.782;2023-06-10T05:54:28;23.70;99.90
35682;DHT22;21805;51.022;4.782;2023-06-10T05:56:53;23.70;99.90
35682;DHT22;21805;51.022;4.782;2023-06-10T05:59:19;23.80;99.90
35682;DHT22;21805;51.022;4.782;2023-06-10T06:01:45;24.00;99.90
35682;DHT22;21805;51.022;4.782;2023-06-10T06:04:10;24.00;99.90
35682;DHT22;21805;51.022;4.782;2023-06-10T06:06:38;24.10;99.90
35682;DHT22;21805;51.022;4.782;2023-06-10T06:09:04;24.10;99.90
35682;DHT22;21805;51.022;4.782;2023-06-10T06:11:29;24.30;99.90
35682;DHT22;21805;51.022;4.782;2023-06-10T06:13:55;24.40;99.90
35682;DHT22;21805;51.022;4.782;2023-06-10T06:16:21;24.40;99.90
35682;DHT22;21805;51.022;4.782;2023-06-10T06:18:46;24.60;99.90
35682;DHT22;21805;51.022;4.782;2023-06-10T06:21:12;24.80;99.90
35682;DHT22;21805;51.022;4.782;2023-06-10T06:23:39;25.00;99.90
35682;DHT22;21805;51.022;4.782;2023-06-10T06:26:04;24.90;99.90
35682;DHT22;21805;51.022;4.782;2023-06-10T06:28:30;25.00;99.90
35682;DHT22;21805;51.022;4.782;2023-06-10T06:30:56;25.10;99.90
35682;DHT22;21805;51.022;4.782;2023-06-10T06:33:22;25.10;99.90
35682;DHT22;21805;51.022;4.782;2023-06-10T06:35:48;25.20;99.90
35682;DHT22;21805;51.022;4.782;2023-06-10T06:38:13;25.30;99.90
35682;DHT22;21805;51.022;4.782;2023-06-10T06:40:39;25.50;99.90
35682;DHT22;21805;51.022;4.782;2023-06-10T06:43:05;25.50;99.90
35682;DHT22;21805;51.022;4.782;2023-06-10T06:45:31;25.50;99.90
35682;DHT22;21805;51.022;4.782;2023-06-10T06:47:59;25.50;99.90
35682;DHT22;21805;51.022;4.782;2023-06-10T06:50:24;25.70;99.90
35682;DHT22;21805;51.022;4.782;2023-06-10T06:52:50;25.70;99.90
35682;DHT22;21805;51.022;4.782;2023-06-10T06:55:16;25.90;99.90
35682;DHT22;21805;51.022;4.782;2023-06-10T06:57:41;26.10;99.90
35682;DHT22;21805;51.022;4.782;2023-06-10T07:00:07;26.20;99.90
35682;DHT22;21805;51.022;4.782;2023-06-10T07:02:34;26.30;99.90
35682;DHT22;21805;51.022;4.782;2023-06-10T07:05:00;26.40;99.30
35682;DHT22;21805;51.022;4.782;2023-06-10T07:07:27;26.40;99.30
35682;DHT22;21805;51.022;4.782;2023-06-10T07:09:52;26.40;98.80
35682;DHT22;21805;51.022;4.782;2023-06-10T07:12:19;26.50;98.90
35682;DHT22;21805;51.022;4.782;2023-06-10T07:14:47;26.60;99.00
35682;DHT22;21805;51.022;4.782;2023-06-10T07:17:13;26.80;99.40
35682;DHT22;21805;51.022;4.782;2023-06-10T07:19:38;27.00;98.80
35682;DHT22;21805;51.022;4.782;2023-06-10T07:22:04;27.10;99.30
35682;DHT22;21805;51.022;4.782;2023-06-10T07:24:30;27.10;99.10
35682;DHT22;21805;51.022;4.782;2023-06-10T07:26:55;27.10;98.60
35682;DHT22;21805;51.022;4.782;2023-06-10T07:29:21;27.20;98.90
35682;DHT22;21805;51.022;4.782;2023-06-10T07:31:46;27.30;98.10
35682;DHT22;21805;51.022;4.782;2023-06-10T07:34:12;27.50;98.40
35682;DHT22;21805;51.022;4.782;2023-06-10T07:36:37;27.60;97.60
35682;DHT22;21805;51.022;4.782;2023-06-10T07:39:03;27.70;98.10
35682;DHT22;21805;51.022;4.782;2023-06-10T07:41:29;27.80;98.50
35682;DHT22;21805;51.022;4.782;2023-06-10T07:43:55;28.00;97.90
35682;DHT22;21805;51.022;4.782;2023-06-10T07:46:21;28.10;97.80
35682;DHT22;21805;51.022;4.782;2023-06-10T07:48:47;28.00;97.40
35682;DHT22;21805;51.022;4.782;2023-06-10T07:51:17;28.00;97.30
35682;DHT22;21805;51.022;4.782;2023-06-10T07:53:43;28.00;97.10
35682;DHT22;21805;51.022;4.782;2023-06-10T07:56:08;28.10;97.20
35682;DHT22;21805;51.022;4.782;2023-06-10T07:58:34;28.30;96.90
35682;DHT22;21805;51.022;4.782;2023-06-10T08:01:00;28.40;96.70
35682;DHT22;21805;51.022;4.782;2023-06-10T08:03:25;28.40;96.70
35682;DHT22;21805;51.022;4.782;2023-06-10T08:05:51;28.60;96.50
35682;DHT22;21805;51.022;4.782;2023-06-10T08:08:16;28.60;96.00
35682;DHT22;21805;51.022;4.782;2023-06-10T08:10:42;28.70;96.20
35682;DHT22;21805;51.022;4.782;2023-06-10T08:13:08;28.80;95.80
35682;DHT22;21805;51.022;4.782;2023-06-10T08:15:34;28.70;95.40
35682;DHT22;21805;51.022;4.782;2023-06-10T08:17:59;28.70;95.30
35682;DHT22;21805;51.022;4.782;2023-06-10T08:20:25;28.90;95.00
35682;DHT22;21805;51.022;4.782;2023-06-10T08:22:51;29.20;95.20
35682;DHT22;21805;51.022;4.782;2023-06-10T08:25:16;29.40;95.20
35682;DHT22;21805;51.022;4.782;2023-06-10T08:27:42;29.50;95.30
35682;DHT22;21805;51.022;4.782;2023-06-10T08:30:07;29.70;95.50
35682;DHT22;21805;51.022;4.782;2023-06-10T08:32:35;29.80;94.70
35682;DHT22;21805;51.022;4.782;2023-06-10T08:35:00;29.90;93.90
35682;DHT22;21805;51.022;4.782;2023-06-10T08:37:26;30.00;95.50
35682;DHT22;21805;51.022;4.782;2023-06-10T08:39:53;30.30;93.80
35682;DHT22;21805;51.022;4.782;2023-06-10T08:44:44;30.30;93.30
35682;DHT22;21805;51.022;4.782;2023-06-10T08:47:15;30.50;93.70
35682;DHT22;21805;51.022;4.782;2023-06-10T08:49:44;30.60;94.70
35682;DHT22;21805;51.022;4.782;2023-06-10T08:52:16;30.80;93.60
35682;DHT22;21805;51.022;4.782;2023-06-10T08:54:49;31.00;92.80
35682;DHT22;21805;51.022;4.782;2023-06-10T08:57:17;31.20;92.40
35682;DHT22;21805;51.022;4.782;2023-06-10T08:59:45;31.40;91.60
35682;DHT22;21805;51.022;4.782;2023-06-10T09:02:11;31.40;91.30
35682;DHT22;21805;51.022;4.782;2023-06-10T09:04:37;31.20;91.90
35682;DHT22;21805;51.022;4.782;2023-06-10T09:07:03;31.30;92.90
35682;DHT22;21805;51.022;4.782;2023-06-10T09:09:30;31.30;91.90
35682;DHT22;21805;51.022;4.782;2023-06-10T09:11:57;31.50;91.90
35682;DHT22;21805;51.022;4.782;2023-06-10T09:14:23;31.30;91.00
35682;DHT22;21805;51.022;4.782;2023-06-10T09:16:49;31.30;91.60
35682;DHT22;21805;51.022;4.782;2023-06-10T09:19:18;31.60;91.50
35682;DHT22;21805;51.022;4.782;2023-06-10T09:21:43;31.90;92.00
35682;DHT22;21805;51.022;4.782;2023-06-10T09:24:09;31.90;90.60
35682;DHT22;21805;51.022;4.782;2023-06-10T09:26:35;31.80;91.20
35682;DHT22;21805;51.022;4.782;2023-06-10T09:29:04;32.00;89.40
35682;DHT22;21805;51.022;4.782;2023-06-10T09:31:30;32.00;90.30
35682;DHT22;21805;51.022;4.782;2023-06-10T09:34:04;31.90;90.20
35682;DHT22;21805;51.022;4.782;2023-06-10T09:36:30;32.00;89.30
35682;DHT22;21805;51.022;4.782;2023-06-10T09:38:56;32.20;89.60
35682;DHT22;21805;51.022;4.782;2023-06-10T09:41:25;32.30;90.70
35682;DHT22;21805;51.022;4.782;2023-06-10T09:43:56;32.00;87.60
35682;DHT22;21805;51.022;4.782;2023-06-10T09:46:22;31.90;87.70
35682;DHT22;21805;51.022;4.782;2023-06-10T09:48:50;32.00;87.30
35682;DHT22;21805;51.022;4.782;2023-06-10T09:51:15;32.20;87.10
35682;DHT22;21805;51.022;4.782;2023-06-10T09:53:53;32.30;87.90
35682;DHT22;21805;51.022;4.782;2023-06-10T09:56:21;32.40;87.70
35682;DHT22;21805;51.022;4.782;2023-06-10T09:58:49;32.50;87.40
35682;DHT22;21805;51.022;4.782;2023-06-10T10:01:18;32.70;88.20
35682;DHT22;21805;51.022;4.782;2023-06-10T10:03:44;32.80;86.70
35682;DHT22;21805;51.022;4.782;2023-06-10T10:06:11;32.80;87.70
35682;DHT22;21805;51.022;4.782;2023-06-10T10:08:37;32.80;89.00
35682;DHT22;21805;51.022;4.782;2023-06-10T10:11:04;33.10;85.10
35682;DHT22;21805;51.022;4.782;2023-06-10T10:16:04;33.00;82.80
35682;DHT22;21805;51.022;4.782;2023-06-10T10:18:30;33.10;81.50
35682;DHT22;21805;51.022;4.782;2023-06-10T10:20:56;33.20;81.90
35682;DHT22;21805;51.022;4.782;2023-06-10T10:23:34;33.50;82.00
35682;DHT22;21805;51.022;4.782;2023-06-10T10:26:03;33.70;81.90
35682;DHT22;21805;51.022;4.782;2023-06-10T10:28:36;33.90;80.50
35682;DHT22;21805;51.022;4.782;2023-06-10T10:31:07;33.80;79.00
35682;DHT22;21805;51.022;4.782;2023-06-10T10:36:06;33.70;77.40
35682;DHT22;21805;51.022;4.782;2023-06-10T10:38:35;33.60;75.60
35682;DHT22;21805;51.022;4.782;2023-06-10T10:41:01;33.50;77.70
35682;DHT22;21805;51.022;4.782;2023-06-10T10:43:29;33.60;77.00
35682;DHT22;21805;51.022;4.782;2023-06-10T10:46:00;33.70;74.00
35682;DHT22;21805;51.022;4.782;2023-06-10T10:48:26;33.80;76.60
35682;DHT22;21805;51.022;4.782;2023-06-10T10:50:57;33.80;74.10
35682;DHT22;21805;51.022;4.782;2023-06-10T10:53:25;33.90;73.70
35682;DHT22;21805;51.022;4.782;2023-06-10T10:56:01;33.80;75.20
35682;DHT22;21805;51.022;4.782;2023-06-10T10:58:30;33.70;74.10
35682;DHT22;21805;51.022;4.782;2023-06-10T11:03:29;33.80;74.80
35682;DHT22;21805;51.022;4.782;2023-06-10T11:05:58;33.80;75.60
35682;DHT22;21805;51.022;4.782;2023-06-10T11:10:57;34.10;75.90
35682;DHT22;21805;51.022;4.782;2023-06-10T11:13:22;34.10;74.50
35682;DHT22;21805;51.022;4.782;2023-06-10T11:15:49;34.00;73.90
35682;DHT22;21805;51.022;4.782;2023-06-10T11:18:30;34.00;74.10
35682;DHT22;21805;51.022;4.782;2023-06-10T11:21:05;33.70;75.30
35682;DHT22;21805;51.022;4.782;2023-06-10T11:23:40;33.70;76.60
35682;DHT22;21805;51.022;4.782;2023-06-10T11:31:25;34.40;74.90
35682;DHT22;21805;51.022;4.782;2023-06-10T11:33:55;34.60;75.00
35682;DHT22;21805;51.022;4.782;2023-06-10T11:36:22;34.20;71.10
35682;DHT22;21805;51.022;4.782;2023-06-10T11:38:48;33.90;73.50
35682;DHT22;21805;51.022;4.782;2023-06-10T11:41:14;34.10;73.80
35682;DHT22;21805;51.022;4.782;2023-06-10T11:43:43;34.50;72.60
35682;DHT22;21805;51.022;4.782;2023-06-10T11:46:09;34.60;72.40
35682;DHT22;21805;51.022;4.782;2023-06-10T11:48:36;34.60;73.00
35682;DHT22;21805;51.022;4.782;2023-06-10T11:51:08;34.80;73.30
35682;DHT22;21805;51.022;4.782;2023-06-10T11:53:36;34.90;73.30
35682;DHT22;21805;51.022;4.782;2023-06-10T11:56:02;34.90;71.90
35682;DHT22;21805;51.022;4.782;2023-06-10T11:58:30;35.10;71.80
35682;DHT22;21805;51.022;4.782;2023-06-10T12:00:57;35.00;70.10
35682;DHT22;21805;51.022;4.782;2023-06-10T12:03:25;35.00;72.50
35682;DHT22;21805;51.022;4.782;2023-06-10T12:06:02;35.10;70.10
35682;DHT22;21805;51.022;4.782;2023-06-10T12:08:29;35.10;71.90
35682;DHT22;21805;51.022;4.782;2023-06-10T12:10:57;35.40;71.70
35682;DHT22;21805;51.022;4.782;2023-06-10T12:13:26;35.40;70.20
35682;DHT22;21805;51.022;4.782;2023-06-10T12:15:51;34.90;70.90
35682;DHT22;21805;51.022;4.782;2023-06-10T12:18:24;34.60;72.90
35682;DHT22;21805;51.022;4.782;2023-06-10T12:20:52;34.50;71.10
35682;DHT22;21805;51.022;4.782;2023-06-10T12:23:18;34.60;71.20
35682;DHT22;21805;51.022;4.782;2023-06-10T12:25:54;35.00;73.90
35682;DHT22;21805;51.022;4.782;2023-06-10T12:28:24;35.20;70.30
35682;DHT22;21805;51.022;4.782;2023-06-10T12:30:50;35.50;69.30
35682;DHT22;21805;51.022;4.782;2023-06-10T12:33:18;35.70;68.40
35682;DHT22;21805;51.022;4.782;2023-06-10T12:35:47;36.00;67.60
35682;DHT22;21805;51.022;4.782;2023-06-10T12:38:14;36.10;67.90
35682;DHT22;21805;51.022;4.782;2023-06-10T12:43:11;36.00;66.10
35682;DHT22;21805;51.022;4.782;2023-06-10T12:45:39;36.10;65.40
35682;DHT22;21805;51.022;4.782;2023-06-10T12:48:09;35.90;64.90
35682;DHT22;21805;51.022;4.782;2023-06-10T12:50:35;35.40;65.80
35682;DHT22;21805;51.022;4.782;2023-06-10T12:53:04;34.90;66.80
35682;DHT22;21805;51.022;4.782;2023-06-10T12:55:31;35.00;67.70
35682;DHT22;21805;51.022;4.782;2023-06-10T12:57:57;34.50;67.20
35682;DHT22;21805;51.022;4.782;2023-06-10T13:00:26;34.50;68.10
35682;DHT22;21805;51.022;4.782;2023-06-10T13:02:57;34.80;67.10
35682;DHT22;21805;51.022;4.782;2023-06-10T13:07:53;35.20;67.00
35682;DHT22;21805;51.022;4.782;2023-06-10T13:10:20;35.30;67.40
35682;DHT22;21805;51.022;4.782;2023-06-10T13:12:46;35.30;66.70
35682;DHT22;21805;51.022;4.782;2023-06-10T13:15:12;35.40;67.80
35682;DHT22;21805;51.022;4.782;2023-06-10T13:17:42;35.80;69.20
35682;DHT22;21805;51.022;4.782;2023-06-10T13:20:13;36.10;65.90
35682;DHT22;21805;51.022;4.782;2023-06-10T13:22:39;35.80;67.80
35682;DHT22;21805;51.022;4.782;2023-06-10T13:25:05;35.90;65.80
35682;DHT22;21805;51.022;4.782;2023-06-10T13:27:34;36.10;65.40
35682;DHT22;21805;51.022;4.782;2023-06-10T13:30:00;36.20;64.50
35682;DHT22;21805;51.022;4.782;2023-06-10T13:32:26;36.20;64.00
35682;DHT22;21805;51.022;4.782;2023-06-10T13:34:52;36.30;64.20
35682;DHT22;21805;51.022;4.782;2023-06-10T13:37:22;36.50;66.50
35682;DHT22;21805;51.022;4.782;2023-06-10T13:39:48;36.50;64.00
35682;DHT22;21805;51.022;4.782;2023-06-10T13:44:51;36.50;64.50
35682;DHT22;21805;51.022;4.782;2023-06-10T13:47:17;36.50;63.80
35682;DHT22;21805;51.022;4.782;2023-06-10T13:49:44;36.50;63.60
35682;DHT22;21805;51.022;4.782;2023-06-10T13:52:16;36.40;63.50
35682;DHT22;21805;51.022;4.782;2023-06-10T13:57:43;36.50;62.80
35682;DHT22;21805;51.022;4.782;2023-06-10T14:00:42;36.50;62.30
35682;DHT22;21805;51.022;4.782;2023-06-10T14:03:07;36.20;63.50
35682;DHT22;21805;51.022;4.782;2023-06-10T14:05:34;36.40;64.70
35682;DHT22;21805;51.022;4.782;2023-06-10T14:08:06;36.50;63.60
35682;DHT22;21805;51.022;4.782;2023-06-10T14:10:35;36.50;60.80
35682;DHT22;21805;51.022;4.782;2023-06-10T14:13:03;36.50;62.20
35682;DHT22;21805;51.022;4.782;2023-06-10T14:18:00;36.90;63.50
35682;DHT22;21805;51.022;4.782;2023-06-10T14:20:30;36.90;63.40
35682;DHT22;21805;51.022;4.782;2023-06-10T14:23:05;36.60;62.20
35682;DHT22;21805;51.022;4.782;2023-06-10T14:28:31;36.40;63.70
35682;DHT22;21805;51.022;4.782;2023-06-10T14:31:01;36.50;62.40
35682;DHT22;21805;51.022;4.782;2023-06-10T14:36:29;36.40;60.90
35682;DHT22;21805;51.022;4.782;2023-06-10T14:38:57;36.40;61.20
35682;DHT22;21805;51.022;4.782;2023-06-10T14:41:23;36.40;59.50
35682;DHT22;21805;51.022;4.782;2023-06-10T14:43:58;36.30;61.70
35682;DHT22;21805;51.022;4.782;2023-06-10T14:46:57;36.40;60.30
35682;DHT22;21805;51.022;4.782;2023-06-10T14:49:15;36.70;60.30
35682;DHT22;21805;51.022;4.782;2023-06-10T14:51:41;37.10;60.70
35682;DHT22;21805;51.022;4.782;2023-06-10T14:54:11;37.20;60.30
35682;DHT22;21805;51.022;4.782;2023-06-10T15:27:56;36.70;61.30
35682;DHT22;21805;51.022;4.782;2023-06-10T15:30:21;36.80;61.60
35682;DHT22;21805;51.022;4.782;2023-06-10T15:35:38;36.50;60.70
35682;DHT22;21805;51.022;4.782;2023-06-10T15:45:40;36.00;61.70
35682;DHT22;21805;51.022;4.782;2023-06-10T15:48:14;35.50;63.10
35682;DHT22;21805;51.022;4.782;2023-06-10T15:50:49;35.30;63.20
35682;DHT22;21805;51.022;4.782;2023-06-10T15:53:17;35.00;63.50
35682;DHT22;21805;51.022;4.782;2023-06-10T15:55:45;34.90;64.40
35682;DHT22;21805;51.022;4.782;2023-06-10T16:00:45;35.10;64.60
35682;DHT22;21805;51.022;4.782;2023-06-10T16:03:15;34.80;64.60
35682;DHT22;21805;51.022;4.782;2023-06-10T16:05:48;34.60;65.60
35682;DHT22;21805;51.022;4.782;2023-06-10T16:08:21;34.20;64.60
35682;DHT22;21805;51.022;4.782;2023-06-10T16:10:47;34.00;64.40
35682;DHT22;21805;51.022;4.782;2023-06-10T16:13:15;33.80;65.10
35682;DHT22;21805;51.022;4.782;2023-06-10T17:47:01;31.20;72.30
35682;DHT22;21805;51.022;4.782;2023-06-10T17:49:36;31.20;73.10
35682;DHT22;21805;51.022;4.782;2023-06-10T17:52:05;31.30;73.50
35682;DHT22;21805;51.022;4.782;2023-06-10T17:54:31;31.30;73.40
35682;DHT22;21805;51.022;4.782;2023-06-10T17:56:58;31.30;73.80
35682;DHT22;21805;51.022;4.782;2023-06-10T17:59:26;31.10;73.00
35682;DHT22;21805;51.022;4.782;2023-06-10T18:01:56;31.10;73.70
35682;DHT22;21805;51.022;4.782;2023-06-10T18:06:57;31.00;74.10
35682;DHT22;21805;51.022;4.782;2023-06-10T18:09:26;30.90;74.50
35682;DHT22;21805;51.022;4.782;2023-06-10T18:11:52;30.90;74.60
35682;DHT22;21805;51.022;4.782;2023-06-10T18:14:20;30.80;74.50
35682;DHT22;21805;51.022;4.782;2023-06-10T18:16:45;30.90;75.00
35682;DHT22;21805;51.022;4.782;2023-06-10T18:19:12;30.80;74.90
35682;DHT22;21805;51.022;4.782;2023-06-10T18:21:41;30.80;74.90
35682;DHT22;21805;51.022;4.782;2023-06-10T18:24:07;30.70;75.10
35682;DHT22;21805;51.022;4.782;2023-06-10T18:26:40;30.80;75.30
35682;DHT22;21805;51.022;4.782;2023-06-10T18:29:08;30.80;75.70
35682;DHT22;21805;51.022;4.782;2023-06-10T18:31:34;30.80;75.70